createdAt,value
2023-06-01T00:00:41.096Z,100515.72
2023-06-01T00:03:10.898Z,100510.38
2023-06-01T00:05:39.378Z,100504.25
2023-06-01T00:08:08.152Z,100496.59
2023-06-01T00:10:36.388Z,100499.28
2023-06-01T00:13:04.626Z,100495.09
2023-06-01T00:15:32.921Z,100501.56
2023-06-01T00:18:02.158Z,100495.81
2023-06-01T00:20:33.314Z,100494.31
2023-06-01T00:23:01.769Z,100495.06
2023-06-01T00:25:30.022Z,100498.88
2023-06-01T00:27:58.329Z,100500.41
2023-06-01T00:30:26.539Z,100493.88
2023-06-01T00:32:54.861Z,100480.88
2023-06-01T00:35:23.373Z,100484.31
2023-06-01T00:37:53.094Z,100483.56
2023-06-01T00:40:21.307Z,100481.28
2023-06-01T00:42:52.247Z,100487.03
2023-06-01T00:45:20.741Z,100479.34
2023-06-01T00:47:49.141Z,100479.38
2023-06-01T00:50:17.437Z,100478.56
2023-06-01T00:52:46.253Z,100474.72
2023-06-01T00:55:15.973Z,100480.84
2023-06-01T00:57:45.699Z,100481.94
2023-06-01T01:00:14.866Z,100478.88
2023-06-01T01:02:45.657Z,100489.22
2023-06-01T01:05:14.096Z,100486.56
2023-06-01T01:08:02.416Z,100481.22
2023-06-01T01:10:36.738Z,100478.91
2023-06-01T01:13:12.643Z,100480.41
2023-06-01T01:15:49.807Z,100488.06
2023-06-01T01:18:22.640Z,100473.13
2023-06-01T01:20:59.393Z,100471.19
2023-06-01T01:23:46.461Z,100477.66
2023-06-01T01:26:41.822Z,100480.31
2023-06-01T01:29:13.534Z,100476.47
2023-06-01T01:31:43.521Z,100474.16
2023-06-01T01:34:12.446Z,100468.03
2023-06-01T01:36:40.910Z,100468.00
2023-06-01T01:39:09.102Z,100472.56
2023-06-01T01:41:37.325Z,100463.38
2023-06-01T01:44:06.584Z,100466.41
2023-06-01T01:46:45.060Z,100469.84
2023-06-01T01:49:19.789Z,100468.66
2023-06-01T01:51:52.996Z,100477.41
2023-06-01T01:54:22.051Z,100470.88
2023-06-01T01:56:52.393Z,100467.81
2023-06-01T01:59:21.022Z,100465.91
2023-06-01T02:04:27.160Z,100466.66
2023-06-01T02:06:55.460Z,100465.88
2023-06-01T02:09:23.771Z,100466.66
2023-06-01T02:11:52.063Z,100465.91
2023-06-01T02:14:20.335Z,100458.63
2023-06-01T02:16:48.627Z,100456.28
2023-06-01T02:19:17.339Z,100457.78
2023-06-01T02:21:47.191Z,100461.88
2023-06-01T02:24:15.897Z,100463.41
2023-06-01T02:26:44.693Z,100466.09
2023-06-01T02:29:15.250Z,100455.78
2023-06-01T02:31:43.506Z,100457.28
2023-06-01T02:34:11.912Z,100456.50
2023-06-01T02:36:40.041Z,100457.97
2023-06-01T02:39:10.050Z,100453.78
2023-06-01T02:41:38.598Z,100453.38
2023-06-01T02:44:06.883Z,100452.97
2023-06-01T02:46:35.591Z,100445.69
2023-06-01T02:49:05.409Z,100447.16
2023-06-01T02:51:34.260Z,100442.94
2023-06-01T02:54:02.528Z,100445.22
2023-06-01T02:56:31.986Z,100443.69
2023-06-01T02:59:00.238Z,100445.59
2023-06-01T03:01:29.144Z,100440.25
2023-06-01T03:03:57.622Z,100440.63
2023-06-01T03:06:26.684Z,100446.31
2023-06-01T03:08:55.002Z,100442.41
2023-06-01T03:11:24.489Z,100444.31
2023-06-01T03:13:54.007Z,100443.19
2023-06-01T03:16:22.247Z,100442.81
2023-06-01T03:18:50.615Z,100440.94
2023-06-01T03:21:18.958Z,100438.66
2023-06-01T03:23:47.117Z,100440.94
2023-06-01T03:26:15.581Z,100444.00
2023-06-01T03:28:43.788Z,100437.13
2023-06-01T03:31:13.671Z,100442.50
2023-06-01T03:33:41.897Z,100435.59
2023-06-01T03:36:10.260Z,100439.06
2023-06-01T03:38:38.449Z,100439.06
2023-06-01T03:41:07.057Z,100437.56
2023-06-01T03:43:35.335Z,100440.25
2023-06-01T03:46:04.391Z,100444.81
2023-06-01T03:48:34.358Z,100437.19
2023-06-01T03:51:02.846Z,100441.81
2023-06-01T03:53:32.584Z,100439.94
2023-06-01T03:56:02.141Z,100442.66
2023-06-01T03:58:30.233Z,100439.25
2023-06-01T04:00:58.607Z,100439.66
2023-06-01T04:03:27.454Z,100439.31
2023-06-01T04:06:00.610Z,100441.69
2023-06-01T04:08:28.970Z,100448.13
2023-06-01T04:10:57.373Z,100451.59
2023-06-01T04:13:27.468Z,100443.59
2023-06-01T04:15:57.464Z,100447.09
2023-06-01T04:18:25.646Z,100452.41
2023-06-01T04:20:53.905Z,100454.00
2023-06-01T04:23:24.294Z,100452.53
2023-06-01T04:26:00.860Z,100455.66
2023-06-01T04:28:29.632Z,100453.75
2023-06-01T04:30:57.833Z,100454.94
2023-06-01T04:33:26.012Z,100459.16
2023-06-01T04:35:54.763Z,100464.53
2023-06-01T04:38:26.314Z,100461.16
2023-06-01T04:40:55.561Z,100470.75
2023-06-01T04:43:24.836Z,100467.38
2023-06-01T04:45:53.132Z,100463.59
2023-06-01T04:48:21.412Z,100472.03
2023-06-01T04:50:50.736Z,100473.59
2023-06-01T04:53:18.962Z,100477.06
2023-06-01T04:55:49.638Z,100468.69
2023-06-01T04:58:18.270Z,100470.19
2023-06-01T05:00:46.893Z,100470.56
2023-06-01T05:03:15.088Z,100480.16
2023-06-01T05:05:43.242Z,100474.41
2023-06-01T05:08:11.707Z,100474.78
2023-06-01T05:10:40.980Z,100480.91
2023-06-01T05:13:10.718Z,100484.31
2023-06-01T05:15:38.989Z,100485.09
2023-06-01T05:18:07.593Z,100493.50
2023-06-01T05:20:36.529Z,100503.06
2023-06-01T05:23:04.722Z,100490.03
2023-06-01T05:25:32.913Z,100489.97
2023-06-01T05:28:01.186Z,100497.63
2023-06-01T05:30:31.202Z,100502.53
2023-06-01T05:32:59.549Z,100508.75
2023-06-01T05:35:27.871Z,100506.66
2023-06-01T05:37:56.031Z,100521.06
2023-06-01T05:40:24.283Z,100519.34
2023-06-01T05:42:52.557Z,100509.56
2023-06-01T05:45:21.054Z,100507.09
2023-06-01T05:47:50.623Z,100509.06
2023-06-01T05:50:19.099Z,100511.03
2023-06-01T05:52:47.320Z,100518.66
2023-06-01T05:55:15.696Z,100513.72
2023-06-01T05:57:43.958Z,100515.47
2023-06-01T06:04:13.129Z,100506.88
2023-06-01T06:06:41.369Z,100513.63
2023-06-01T06:09:11.143Z,100517.84
2023-06-01T06:11:39.853Z,100522.25
2023-06-01T06:14:08.059Z,100521.38
2023-06-01T06:16:36.430Z,100513.38
2023-06-01T06:19:04.882Z,100516.94
2023-06-01T06:21:36.524Z,100518.66
2023-06-01T06:24:07.812Z,100515.28
2023-06-01T06:26:38.762Z,100506.81
2023-06-01T06:29:06.934Z,100510.13
2023-06-01T06:31:35.165Z,100513.72
2023-06-01T06:34:04.072Z,100514.00
2023-06-01T06:36:32.818Z,100514.56
2023-06-01T06:39:02.357Z,100517.81
2023-06-01T06:41:30.740Z,100521.19
2023-06-01T06:43:59.557Z,100515.84
2023-06-01T06:46:27.784Z,100504.09
2023-06-01T06:48:56.544Z,100503.41
2023-06-01T06:51:37.895Z,100509.25
2023-06-01T06:54:13.826Z,100507.09
2023-06-01T06:56:42.058Z,100500.66
2023-06-01T06:59:15.483Z,100504.72
2023-06-01T07:01:44.507Z,100512.94
2023-06-01T07:04:18.393Z,100504.59
2023-06-01T07:06:51.269Z,100502.09
2023-06-01T07:09:21.128Z,100506.75
2023-06-01T07:12:07.504Z,100506.66
2023-06-01T07:14:35.767Z,100509.91
2023-06-01T07:17:04.229Z,100515.47
2023-06-01T07:19:34.538Z,100518.28
2023-06-01T07:22:03.263Z,100517.25
2023-06-01T07:24:43.249Z,100505.06
2023-06-01T07:27:14.118Z,100502.03
2023-06-01T07:29:42.435Z,100511.38
2023-06-01T07:32:11.094Z,100512.78
2023-06-01T07:34:39.422Z,100518.69
2023-06-01T07:37:16.906Z,100523.59
2023-06-01T07:39:47.906Z,100515.16
2023-06-01T07:42:16.298Z,100517.25
2023-06-01T07:44:44.549Z,100512.25
2023-06-01T07:47:13.200Z,100517.56
2023-06-01T07:49:41.901Z,100522.31
2023-06-01T07:52:10.322Z,100515.19
2023-06-01T07:54:38.838Z,100518.53
2023-06-01T07:57:09.584Z,100511.38
2023-06-01T07:59:37.833Z,100522.94
2023-06-01T08:02:09.643Z,100517.91
2023-06-01T08:04:39.954Z,100515.38
2023-06-01T08:07:09.291Z,100521.56
2023-06-01T08:09:43.817Z,100515.94
2023-06-01T08:12:14.497Z,100515.47
2023-06-01T08:14:42.683Z,100518.44
2023-06-01T08:17:12.906Z,100510.88
2023-06-01T08:19:43.220Z,100510.78
2023-06-01T08:22:13.091Z,100506.66
2023-06-01T08:24:41.457Z,100514.91
2023-06-01T08:27:24.901Z,100511.28
2023-06-01T08:29:55.391Z,100508.44
2023-06-01T08:32:26.182Z,100504.91
2023-06-01T08:34:54.549Z,100509.38
2023-06-01T08:37:23.066Z,100506.53
2023-06-01T08:39:51.608Z,100505.31
2023-06-01T08:42:28.181Z,100502.66
2023-06-01T08:44:57.645Z,100501.59
2023-06-01T08:47:29.717Z,100491.91
2023-06-01T08:50:00.208Z,100500.56
2023-06-01T08:52:33.258Z,100498.25
2023-06-01T08:55:01.686Z,100488.00
2023-06-01T08:57:32.163Z,100492.41
2023-06-01T09:00:01.151Z,100498.47
2023-06-01T09:02:29.714Z,100502.09
2023-06-01T09:04:57.965Z,100491.16
2023-06-01T09:07:26.277Z,100493.34
2023-06-01T09:09:54.654Z,100493.44
2023-06-01T09:12:26.764Z,100496.38
2023-06-01T09:15:11.708Z,100495.78
2023-06-01T09:17:42.546Z,100499.44
2023-06-01T09:20:14.922Z,100492.00
2023-06-01T09:22:45.194Z,100493.25
2023-06-01T09:25:15.108Z,100489.00
2023-06-01T09:27:48.148Z,100490.50
2023-06-01T09:30:19.371Z,100485.72
2023-06-01T09:32:52.088Z,100485.06
2023-06-01T09:35:39.361Z,100478.91
2023-06-01T09:38:07.981Z,100481.09
2023-06-01T09:40:36.931Z,100483.53
2023-06-01T09:43:05.401Z,100474.31
2023-06-01T09:45:35.058Z,100474.00
2023-06-01T09:48:20.420Z,100478.47
2023-06-01T09:50:48.761Z,100475.75
2023-06-01T09:53:18.181Z,100467.03
2023-06-01T09:56:00.746Z,100468.28
2023-06-01T09:58:30.164Z,100461.09
2023-06-01T10:01:05.056Z,100461.13
2023-06-01T10:03:33.698Z,100458.84
2023-06-01T10:06:02.999Z,100459.16
2023-06-01T10:08:32.693Z,100455.81
2023-06-01T10:11:00.935Z,100456.47
2023-06-01T10:13:29.191Z,100450.66
2023-06-01T10:15:57.714Z,100449.88
2023-06-01T10:18:28.139Z,100442.16
2023-06-01T10:20:58.842Z,100446.69
2023-06-01T10:23:31.447Z,100449.22
2023-06-01T10:26:07.497Z,100450.88
2023-06-01T10:28:37.806Z,100445.13
2023-06-01T10:31:37.409Z,100434.69
2023-06-01T10:34:10.671Z,100434.78
2023-06-01T10:37:17.322Z,100440.00
2023-06-01T10:39:45.808Z,100433.41
2023-06-01T10:42:47.442Z,100438.72
2023-06-01T10:45:38.734Z,100431.00
2023-06-01T10:48:08.723Z,100427.56
2023-06-01T10:50:38.977Z,100421.50
2023-06-01T10:53:27.544Z,100423.44
2023-06-01T10:56:23.303Z,100422.84
2023-06-01T10:59:18.934Z,100419.44
2023-06-01T11:01:51.995Z,100421.22
2023-06-01T11:04:37.743Z,100410.50
2023-06-01T11:07:40.683Z,100416.78
2023-06-01T11:10:09.529Z,100414.13
2023-06-01T11:13:12.135Z,100405.44
2023-06-01T11:15:42.153Z,100402.13
2023-06-01T11:18:59.491Z,100398.50
2023-06-01T11:21:29.089Z,100395.28
2023-06-01T11:24:00.415Z,100392.97
2023-06-01T11:26:32.769Z,100387.16
2023-06-01T11:29:09.997Z,100386.66
2023-06-01T11:31:41.215Z,100376.81
2023-06-01T11:34:10.726Z,100384.19
2023-06-01T11:36:44.488Z,100379.41
2023-06-01T11:39:25.117Z,100375.16
2023-06-01T11:42:05.334Z,100375.59
2023-06-01T11:44:33.993Z,100367.50
2023-06-01T11:47:04.104Z,100374.31
2023-06-01T11:49:32.413Z,100357.59
2023-06-01T11:52:00.802Z,100361.59
2023-06-01T11:54:31.160Z,100343.00
2023-06-01T11:57:04.900Z,100348.03
2023-06-01T11:59:39.011Z,100339.75
2023-06-01T12:02:18.955Z,100338.00
2023-06-01T12:04:58.155Z,100343.06
2023-06-01T12:07:26.721Z,100343.75
2023-06-01T12:09:56.779Z,100337.72
2023-06-01T12:12:25.978Z,100321.47
2023-06-01T12:14:54.766Z,100328.41
2023-06-01T12:17:23.276Z,100318.53
2023-06-01T12:19:52.897Z,100321.16
2023-06-01T12:22:21.215Z,100310.56
2023-06-01T12:24:49.478Z,100317.59
2023-06-01T12:27:21.141Z,100315.31
2023-06-01T12:29:51.702Z,100315.06
2023-06-01T12:32:20.932Z,100316.22
2023-06-01T12:35:08.218Z,100306.41
2023-06-01T12:37:36.440Z,100304.78
2023-06-01T12:40:05.121Z,100300.22
2023-06-01T12:42:38.563Z,100300.41
2023-06-01T12:45:08.610Z,100299.25
2023-06-01T12:47:38.145Z,100286.28
2023-06-01T12:50:07.287Z,100289.03
2023-06-01T12:52:35.932Z,100280.34
2023-06-01T12:55:05.216Z,100281.84
2023-06-01T12:57:57.907Z,100273.38
2023-06-01T13:00:30.779Z,100277.47
2023-06-01T13:03:04.077Z,100282.56
2023-06-01T13:05:32.454Z,100287.03
2023-06-01T13:08:01.462Z,100278.28
2023-06-01T13:10:29.860Z,100280.53
2023-06-01T13:12:59.536Z,100275.00
2023-06-01T13:15:27.860Z,100267.19
2023-06-01T13:17:57.385Z,100264.44
2023-06-01T13:20:26.063Z,100263.41
2023-06-01T13:22:54.866Z,100259.81
2023-06-01T13:25:25.422Z,100262.50
2023-06-01T13:27:54.388Z,100261.19
2023-06-01T13:30:23.987Z,100253.69
2023-06-01T13:32:52.445Z,100253.84
2023-06-01T13:35:21.213Z,100243.91
2023-06-01T13:37:49.559Z,100237.50
2023-06-01T13:40:19.426Z,100232.50
2023-06-01T13:42:47.832Z,100239.47
2023-06-01T13:45:16.241Z,100234.09
2023-06-01T13:47:46.789Z,100235.22
2023-06-01T13:50:16.004Z,100225.03
2023-06-01T13:52:44.354Z,100223.63
2023-06-01T13:55:12.942Z,100225.13
2023-06-01T13:57:43.141Z,100219.22
2023-06-01T14:00:13.024Z,100212.16
2023-06-01T14:02:41.612Z,100209.47
2023-06-01T14:05:18.719Z,100206.13
2023-06-01T14:07:49.977Z,100189.91
2023-06-01T14:10:18.537Z,100191.88
2023-06-01T14:12:46.694Z,100193.34
2023-06-01T14:15:14.974Z,100183.09
2023-06-01T14:20:13.581Z,100191.25
2023-06-01T14:22:42.218Z,100182.06
2023-06-01T14:25:11.092Z,100183.44
2023-06-01T14:27:39.446Z,100174.56
2023-06-01T14:30:08.995Z,100178.41
2023-06-01T14:32:37.354Z,100167.00
2023-06-01T14:35:07.164Z,100171.66
2023-06-01T14:37:48.917Z,100162.91
2023-06-01T14:40:21.647Z,100164.75
2023-06-01T14:42:49.916Z,100168.59
2023-06-01T14:45:20.646Z,100160.19
2023-06-01T14:47:50.754Z,100162.13
2023-06-01T14:50:19.885Z,100150.47
2023-06-01T14:52:49.725Z,100161.66
2023-06-01T14:55:20.053Z,100148.16
2023-06-01T14:57:48.454Z,100147.66
2023-06-01T15:00:17.894Z,100147.00
2023-06-01T15:05:15.144Z,100141.47
2023-06-01T15:07:43.384Z,100133.78
2023-06-01T15:10:13.241Z,100135.00
2023-06-01T15:12:41.434Z,100134.56
2023-06-01T15:15:13.815Z,100128.00
2023-06-01T15:17:42.315Z,100126.03
2023-06-01T15:20:11.382Z,100120.56
2023-06-01T15:22:39.730Z,100120.19
2023-06-01T15:25:09.545Z,100120.97
2023-06-01T15:27:40.662Z,100118.66
2023-06-01T15:30:12.478Z,100119.16
2023-06-01T15:32:40.832Z,100104.81
2023-06-01T15:35:09.788Z,100111.19
2023-06-01T15:37:38.482Z,100108.75
2023-06-01T15:40:14.760Z,100103.78
2023-06-01T15:42:47.339Z,100102.31
2023-06-01T15:45:15.591Z,100103.78
2023-06-01T15:47:43.959Z,100102.09
2023-06-01T15:50:12.772Z,100108.50
2023-06-01T15:52:41.007Z,100103.19
2023-06-01T15:55:09.817Z,100098.78
2023-06-01T15:57:38.098Z,100094.09
2023-06-01T16:00:17.868Z,100096.34
2023-06-01T16:02:46.121Z,100105.06
2023-06-01T16:05:20.601Z,100093.69
2023-06-01T16:07:48.750Z,100083.13
2023-06-01T16:10:17.219Z,100084.50
2023-06-01T16:12:45.401Z,100078.38
2023-06-01T16:15:15.000Z,100080.09
2023-06-01T16:17:43.336Z,100077.94
2023-06-01T16:20:12.782Z,100085.53
2023-06-01T16:22:41.019Z,100076.63
2023-06-01T16:25:11.211Z,100079.03
2023-06-01T16:27:39.551Z,100077.63
2023-06-01T16:30:09.150Z,100083.63
2023-06-01T16:32:38.834Z,100075.03
2023-06-01T16:35:07.804Z,100074.56
2023-06-01T16:37:36.197Z,100072.59
2023-06-01T16:40:06.969Z,100066.41
2023-06-01T16:42:35.287Z,100072.69
2023-06-01T16:45:03.569Z,100074.31
2023-06-01T16:47:31.903Z,100065.56
2023-06-01T16:50:01.544Z,100065.63
2023-06-01T16:52:31.573Z,100073.00
2023-06-01T16:54:59.902Z,100073.44
2023-06-01T16:57:29.715Z,100068.84
2023-06-01T16:59:58.544Z,100066.19
2023-06-01T17:02:28.645Z,100070.03
2023-06-01T17:04:56.951Z,100061.34
2023-06-01T17:07:29.575Z,100065.25
2023-06-01T17:09:57.939Z,100061.47
2023-06-01T17:12:26.166Z,100071.91
2023-06-01T17:14:56.149Z,100066.53
2023-06-01T17:17:25.843Z,100070.78
2023-06-01T17:19:55.801Z,100072.78
2023-06-01T17:22:24.318Z,100070.38
2023-06-01T17:24:53.910Z,100064.03
2023-06-01T17:27:22.424Z,100065.59
2023-06-01T17:29:52.625Z,100060.34
2023-06-01T17:32:20.814Z,100058.97
2023-06-01T17:34:49.074Z,100067.25
2023-06-01T17:37:24.239Z,100057.78
2023-06-01T17:39:53.987Z,100067.88
2023-06-01T17:42:22.289Z,100064.25
2023-06-01T17:44:50.609Z,100074.66
2023-06-01T17:47:20.075Z,100066.66
2023-06-01T17:49:51.235Z,100064.84
2023-06-01T17:52:21.438Z,100066.81
2023-06-01T17:54:49.977Z,100062.56
2023-06-01T17:57:19.711Z,100062.22
2023-06-01T17:59:49.993Z,100063.88
2023-06-01T18:02:18.412Z,100068.50
2023-06-01T18:04:51.413Z,100066.97
2023-06-01T18:07:19.827Z,100067.03
2023-06-01T18:09:49.660Z,100070.28
2023-06-01T18:12:19.281Z,100071.09
2023-06-01T18:14:49.108Z,100068.78
2023-06-01T18:17:17.279Z,100075.75
2023-06-01T18:19:45.795Z,100070.63
2023-06-01T18:22:14.086Z,100074.13
2023-06-01T18:24:43.832Z,100076.16
2023-06-01T18:27:12.193Z,100075.41
2023-06-01T18:29:41.856Z,100075.44
2023-06-01T18:32:10.219Z,100064.66
2023-06-01T18:34:38.507Z,100071.47
2023-06-01T18:37:07.787Z,100075.16
2023-06-01T18:39:35.962Z,100081.66
2023-06-01T18:42:04.970Z,100075.50
2023-06-01T18:44:33.179Z,100077.66
2023-06-01T18:47:02.975Z,100088.22
2023-06-01T18:49:31.700Z,100086.84
2023-06-01T18:52:01.953Z,100085.09
2023-06-01T18:54:33.594Z,100086.16
2023-06-01T18:57:01.930Z,100086.66
2023-06-01T18:59:30.185Z,100086.09
2023-06-01T19:01:58.509Z,100096.44
2023-06-01T19:04:28.890Z,100089.06
2023-06-01T19:06:57.185Z,100105.13
2023-06-01T19:09:25.606Z,100097.28
2023-06-01T19:11:53.838Z,100097.53
2023-06-01T19:14:22.144Z,100104.28
2023-06-01T19:16:50.397Z,100098.31
2023-06-01T19:19:25.278Z,100099.69
2023-06-01T19:21:54.942Z,100104.03
2023-06-01T19:24:28.066Z,100096.81
2023-06-01T19:26:56.847Z,100099.50
2023-06-01T19:29:25.377Z,100105.06
2023-06-01T19:31:53.743Z,100102.75
2023-06-01T19:34:22.650Z,100108.41
2023-06-01T19:36:59.196Z,100111.22
2023-06-01T19:39:36.223Z,100104.19
2023-06-01T19:42:09.324Z,100105.34
2023-06-01T19:44:37.952Z,100108.84
2023-06-01T19:47:08.173Z,100108.91
2023-06-01T19:49:38.709Z,100109.41
2023-06-01T19:52:11.066Z,100113.41
2023-06-01T19:54:41.389Z,100113.25
2023-06-01T19:57:10.000Z,100106.97
2023-06-01T19:59:40.346Z,100106.06
2023-06-01T20:02:24.525Z,100106.16
2023-06-01T20:04:52.911Z,100105.91
2023-06-01T20:07:23.180Z,100100.44
2023-06-01T20:09:51.468Z,100103.53
2023-06-01T20:12:21.534Z,100110.09
2023-06-01T20:14:50.128Z,100107.41
2023-06-01T20:17:18.405Z,100113.56
2023-06-01T20:19:46.802Z,100112.06
2023-06-01T20:22:15.206Z,100114.75
2023-06-01T20:24:46.248Z,100110.69
2023-06-01T20:27:15.288Z,100106.56
2023-06-01T20:29:43.579Z,100116.44
2023-06-01T20:32:12.252Z,100112.63
2023-06-01T20:34:41.061Z,100114.63
2023-06-01T20:37:11.951Z,100107.69
2023-06-01T20:39:40.485Z,100114.22
2023-06-01T20:42:11.874Z,100105.84
2023-06-01T20:44:40.237Z,100108.47
2023-06-01T20:47:08.894Z,100103.16
2023-06-01T20:49:37.112Z,100097.06
2023-06-01T20:52:06.078Z,100098.25
2023-06-01T20:54:34.363Z,100090.63
2023-06-01T20:57:02.728Z,100095.81
2023-06-01T20:59:36.927Z,100098.28
2023-06-01T21:02:07.385Z,100095.34
2023-06-01T21:04:39.577Z,100098.78
2023-06-01T21:07:10.003Z,100098.47
2023-06-01T21:09:38.245Z,100092.06
2023-06-01T21:12:08.116Z,100089.78
2023-06-01T21:14:37.807Z,100095.59
2023-06-01T21:17:06.819Z,100093.34
2023-06-01T21:19:35.261Z,100086.13
2023-06-01T21:22:03.619Z,100099.97
2023-06-01T21:24:32.034Z,100094.25
2023-06-01T21:27:00.851Z,100096.59
2023-06-01T21:29:29.029Z,100101.19
2023-06-01T21:31:58.698Z,100099.31
2023-06-01T21:34:27.093Z,100094.75
2023-06-01T21:36:55.941Z,100096.72
2023-06-01T21:39:25.110Z,100092.56
2023-06-01T21:41:53.312Z,100092.63
2023-06-01T21:44:21.574Z,100099.13
2023-06-01T21:46:50.202Z,100091.19
2023-06-01T21:49:21.274Z,100099.66
2023-06-01T21:51:49.532Z,100095.44
2023-06-01T21:54:17.856Z,100091.63
2023-06-01T21:56:46.121Z,100082.44
2023-06-01T21:59:16.264Z,100093.22
2023-06-01T22:01:44.523Z,100082.16
2023-06-01T22:04:13.077Z,100087.22
2023-06-01T22:06:42.965Z,100081.88
2023-06-01T22:09:11.339Z,100076.44
2023-06-01T22:11:39.441Z,100064.22
2023-06-01T22:14:07.688Z,100067.28
2023-06-01T22:16:35.980Z,100071.91
2023-06-01T22:19:04.339Z,100066.63
2023-06-01T22:21:32.998Z,100068.16
2023-06-01T22:24:02.786Z,100066.63
2023-06-01T22:26:31.016Z,100060.94
2023-06-01T22:28:59.289Z,100051.81
2023-06-01T22:31:27.650Z,100057.59
2023-06-01T22:33:55.871Z,100059.16
2023-06-01T22:36:24.170Z,100052.31
2023-06-01T22:38:52.347Z,100051.25
2023-06-01T22:41:22.355Z,100049.34
2023-06-01T22:43:50.693Z,100046.66
2023-06-01T22:46:19.043Z,100044.78
2023-06-01T22:48:49.717Z,100049.38
2023-06-01T22:51:18.328Z,100052.50
2023-06-01T22:53:47.468Z,100052.16
2023-06-01T22:56:15.824Z,100057.13
2023-06-01T22:58:45.501Z,100055.94
2023-06-01T23:01:14.253Z,100052.09
2023-06-01T23:03:42.679Z,100060.88
2023-06-01T23:06:10.928Z,100053.63
2023-06-01T23:08:39.194Z,100050.25
2023-06-01T23:11:09.956Z,100056.00
2023-06-01T23:13:42.373Z,100046.88
2023-06-01T23:16:13.909Z,100042.72
2023-06-01T23:18:42.727Z,100032.41
2023-06-01T23:21:14.561Z,100029.75
2023-06-01T23:23:45.566Z,100034.31
2023-06-01T23:26:14.290Z,100037.34
2023-06-01T23:28:59.643Z,100030.88
2023-06-01T23:31:34.583Z,100019.78
2023-06-01T23:34:03.938Z,100022.50
2023-06-01T23:36:36.187Z,100029.06
2023-06-01T23:39:07.261Z,100019.91
2023-06-01T23:41:36.955Z,100032.53
2023-06-01T23:44:06.133Z,100017.63
2023-06-01T23:46:35.939Z,100017.28
2023-06-01T23:49:04.897Z,100015.72
2023-06-01T23:51:33.183Z,100013.06
2023-06-01T23:54:01.613Z,100009.66
2023-06-01T23:56:29.928Z,100011.97
2023-06-01T23:58:58.346Z,100011.94
